Time;durP1;ratioP1;P1;durP2;ratioP2;P2;SDS_P1;SDS_P2;PMS_P1;PMS_P2;Temp;Humidity;BMP_temperature;BMP_pressure;BME280_temperature;BME280_humidity;BME280_pressure;Samples;Min_cycle;Max_cycle;Signal;HPM_P1;HPM_P2
2022/03/10 00:02:46;;;;;;;14.00;6.38;;;;;;;;;;10488534;28;20106;-70
2022/03/10 00:07:47;;;;;;;19.35;6.82;;;;;;;;;;10487851;28;20040;-70
2022/03/10 00:12:52;;;;;;;12.32;5.78;;;;;;;;;;10486918;28;20427;-70
2022/03/10 00:17:53;;;;;;;15.40;6.50;;;;;;;;;;10487050;28;20044;-70
2022/03/10 00:22:56;;;;;;;16.55;6.55;;;;;;;;;;10495540;28;20052;-70
2022/03/10 00:27:58;;;;;;;13.45;5.97;;;;;;;;;;10525978;28;20050;-70
2022/03/10 00:32:59;;;;;;;13.75;5.63;;;;;;;;;;10514314;28;20054;-70
2022/03/10 00:38:01;;;;;;;14.20;5.90;;;;;;;;;;10500289;28;20545;-70
2022/03/10 00:43:02;;;;;;;13.65;6.35;;;;;;;;;;10485525;28;20187;-70
2022/03/10 00:48:04;;;;;;;16.63;6.90;;;;;;;;;;10486190;28;20049;-70
2022/03/10 00:53:06;;;;;;;12.95;6.07;;;;;;;;;;10507313;28;20044;-70
2022/03/10 00:58:08;;;;;;;13.63;6.13;;;;;;;;;;10525622;28;20048;-70
2022/03/10 01:03:09;;;;;;;11.55;5.13;;;;;;;;;;10502617;28;20531;-70
2022/03/10 01:08:11;;;;;;;13.48;5.72;;;;;;;;;;10509496;28;20044;-70
2022/03/10 01:13:14;;;;;;;14.10;6.15;;;;;;;;;;10485985;28;20396;-70
2022/03/10 01:18:16;;;;;;;13.68;5.90;;;;;;;;;;10517713;28;20842;-70
2022/03/10 01:23:17;;;;;;;12.07;5.75;;;;;;;;;;10517443;28;20423;-70
2022/03/10 01:28:24;;;;;;;14.73;6.07;;;;;;;;;;10483969;28;20048;-70
2022/03/10 01:33:25;;;;;;;16.10;6.60;;;;;;;;;;10500421;28;20044;-70
2022/03/10 01:38:27;;;;;;;17.15;6.78;;;;;;;;;;10518582;28;20147;-70
2022/03/10 01:43:28;;;;;;;12.95;5.82;;;;;;;;;;10483294;28;20037;-70
2022/03/10 01:48:30;;;;;;;12.82;6.05;;;;;;;;;;10483003;28;20049;-70
2022/03/10 01:53:32;;;;;;;15.50;6.75;;;;;;;;;;10509073;28;20040;-70
2022/03/10 01:58:33;;;;;;;18.58;6.25;;;;;;;;;;10482803;28;20048;-70
2022/03/10 02:03:35;;;;;;;14.90;6.18;;;;;;;;;;10503235;28;20111;-70
2022/03/10 02:13:57;;;;;;;17.00;6.47;;;;;;;;;;10487872;28;20408;-69
2022/03/10 02:18:58;;;;;;;18.70;7.07;;;;;;;;;;10483110;28;20040;-70
2022/03/10 02:24:00;;;;;;;16.88;7.10;;;;;;;;;;10515121;28;20048;-69
2022/03/10 02:29:01;;;;;;;14.52;6.13;;;;;;;;;;10494630;28;20059;-69
2022/03/10 02:34:03;;;;;;;12.35;6.00;;;;;;;;;;10481898;28;20054;-70
2022/03/10 02:39:04;;;;;;;15.00;7.00;;;;;;;;;;10481714;28;20060;-69
2022/03/10 02:44:05;;;;;;;15.48;6.30;;;;;;;;;;10505114;28;20055;-69
2022/03/10 02:49:07;;;;;;;15.13;6.63;;;;;;;;;;10504146;28;20059;-69
2022/03/10 02:54:08;;;;;;;14.27;6.38;;;;;;;;;;10513576;28;20564;-69
2022/03/10 02:59:10;;;;;;;16.88;6.13;;;;;;;;;;10521902;28;20048;-69
2022/03/10 03:04:12;;;;;;;15.65;6.55;;;;;;;;;;10521887;28;20880;-70
2022/03/10 03:09:15;;;;;;;14.13;6.55;;;;;;;;;;10481695;28;20079;-70
2022/03/10 03:14:17;;;;;;;14.93;7.00;;;;;;;;;;10480746;28;20052;-69
2022/03/10 03:19:18;;;;;;;13.70;5.72;;;;;;;;;;10490883;28;20404;-69
2022/03/10 03:24:20;;;;;;;15.45;7.10;;;;;;;;;;10483394;28;20045;-69
2022/03/10 03:29:22;;;;;;;19.60;6.85;;;;;;;;;;10479346;28;20739;-69
2022/03/10 03:34:24;;;;;;;14.93;6.45;;;;;;;;;;10519304;28;20048;-69
2022/03/10 03:39:25;;;;;;;14.63;6.50;;;;;;;;;;10513542;28;20056;-69
2022/03/10 03:44:26;;;;;;;16.10;6.85;;;;;;;;;;10519847;28;20044;-68
2022/03/10 03:49:28;;;;;;;14.20;6.72;;;;;;;;;;10520282;28;20053;-69
2022/03/10 03:54:29;;;;;;;12.48;6.32;;;;;;;;;;10519968;28;20788;-69
2022/03/10 03:59:31;;;;;;;17.13;6.68;;;;;;;;;;10493608;28;20491;-68
2022/03/10 04:04:32;;;;;;;16.80;6.32;;;;;;;;;;10510414;28;20110;-68
2022/03/10 04:09:34;;;;;;;13.60;6.50;;;;;;;;;;10507713;28;20060;-68
2022/03/10 04:14:35;;;;;;;17.45;6.28;;;;;;;;;;10527456;28;20586;-68
2022/03/10 04:19:36;;;;;;;16.15;7.13;;;;;;;;;;10526667;28;20060;-68
2022/03/10 04:24:38;;;;;;;15.65;6.68;;;;;;;;;;10521522;28;20044;-68
2022/03/10 04:29:39;;;;;;;17.52;6.20;;;;;;;;;;10520780;28;20109;-67
2022/03/10 04:34:41;;;;;;;15.55;5.60;;;;;;;;;;10527402;28;20044;-67
2022/03/10 04:39:42;;;;;;;17.42;6.80;;;;;;;;;;10513282;28;20044;-67
2022/03/10 04:44:43;;;;;;;12.68;6.25;;;;;;;;;;10527147;28;20523;-67
2022/03/10 04:49:45;;;;;;;13.60;6.32;;;;;;;;;;10487869;28;20060;-67
2022/03/10 04:54:46;;;;;;;18.83;6.97;;;;;;;;;;10485537;28;20466;-68
2022/03/10 04:59:48;;;;;;;18.13;7.32;;;;;;;;;;10485323;28;20053;-67
2022/03/10 05:04:49;;;;;;;14.90;6.45;;;;;;;;;;10493089;28;20056;-67
2022/03/10 05:09:51;;;;;;;13.50;6.15;;;;;;;;;;10519813;28;20039;-67
2022/03/10 05:14:52;;;;;;;16.13;6.80;;;;;;;;;;10512864;28;20044;-67
2022/03/10 05:19:53;;;;;;;12.25;6.40;;;;;;;;;;10524619;28;20054;-67
2022/03/10 05:24:55;;;;;;;15.23;6.32;;;;;;;;;;10501340;28;20076;-68
2022/03/10 05:29:56;;;;;;;14.90;6.55;;;;;;;;;;10490767;28;20056;-68
2022/03/10 05:35:00;;;;;;;17.98;7.20;;;;;;;;;;10491244;28;20051;-67
2022/03/10 05:40:02;;;;;;;18.27;6.63;;;;;;;;;;10509823;28;20043;-67
2022/03/10 05:45:03;;;;;;;16.20;7.22;;;;;;;;;;10517328;28;20051;-67
2022/03/10 05:50:08;;;;;;;21.98;8.43;;;;;;;;;;10523170;28;20055;-67
2022/03/10 05:55:09;;;;;;;48.53;13.85;;;;;;;;;;10523563;28;20052;-67
2022/03/10 06:00:11;;;;;;;53.20;15.50;;;;;;;;;;10522041;28;20049;-66
2022/03/10 06:05:13;;;;;;;72.57;18.42;;;;;;;;;;10492573;28;20051;-67
2022/03/10 06:10:15;;;;;;;68.65;15.20;;;;;;;;;;10501792;28;20156;-69
2022/03/10 06:15:16;;;;;;;69.32;18.48;;;;;;;;;;10482944;28;20139;-67
2022/03/10 06:20:17;;;;;;;32.67;12.38;;;;;;;;;;10521401;28;20040;-68
2022/03/10 06:25:19;;;;;;;63.30;17.98;;;;;;;;;;10524060;28;20083;-67
2022/03/10 06:30:20;;;;;;;17.95;8.27;;;;;;;;;;10512260;28;20048;-68
2022/03/10 06:35:22;;;;;;;31.88;9.57;;;;;;;;;;10504833;28;20051;-68
2022/03/10 06:40:24;;;;;;;23.92;10.30;;;;;;;;;;10510857;28;20054;-67
2022/03/10 06:45:25;;;;;;;16.80;7.22;;;;;;;;;;10494670;28;20052;-68
2022/03/10 06:50:28;;;;;;;24.23;9.95;;;;;;;;;;10477265;28;20041;-68
2022/03/10 06:55:29;;;;;;;26.13;10.35;;;;;;;;;;10486825;28;20047;-69
2022/03/10 07:00:32;;;;;;;28.95;11.43;;;;;;;;;;10501193;28;20048;-67
2022/03/10 07:05:33;;;;;;;42.25;17.45;;;;;;;;;;10488660;28;20051;-70
2022/03/10 07:10:35;;;;;;;32.90;9.75;;;;;;;;;;10514844;28;20051;-69
2022/03/10 07:15:36;;;;;;;18.25;8.00;;;;;;;;;;10521275;28;20476;-70
2022/03/10 07:20:38;;;;;;;17.35;7.95;;;;;;;;;;10520539;28;20048;-70
2022/03/10 07:25:42;;;;;;;17.33;8.30;;;;;;;;;;10521905;28;20044;-70
2022/03/10 07:30:44;;;;;;;15.07;6.90;;;;;;;;;;10507554;28;20053;-70
2022/03/10 07:35:45;;;;;;;16.10;8.25;;;;;;;;;;10519259;28;20052;-70
2022/03/10 07:40:47;;;;;;;15.05;7.03;;;;;;;;;;10513469;28;20074;-70
2022/03/10 07:45:50;;;;;;;17.67;7.88;;;;;;;;;;10523782;28;20044;-71
2022/03/10 07:50:52;;;;;;;14.88;7.70;;;;;;;;;;10503587;28;20187;-71
2022/03/10 07:55:56;;;;;;;19.00;7.47;;;;;;;;;;10514231;28;20426;-69
2022/03/10 08:00:58;;;;;;;14.25;6.95;;;;;;;;;;10517638;28;20045;-70
2022/03/10 08:05:59;;;;;;;24.90;7.63;;;;;;;;;;10487479;28;20048;-71
2022/03/10 08:11:03;;;;;;;16.95;7.07;;;;;;;;;;10493725;28;20129;-72
2022/03/10 08:16:04;;;;;;;15.15;6.80;;;;;;;;;;10508301;28;20091;-71
2022/03/10 08:21:06;;;;;;;14.68;6.63;;;;;;;;;;10521096;28;20804;-72
2022/03/10 08:26:08;;;;;;;12.52;6.32;;;;;;;;;;10512884;28;20139;-71
2022/03/10 08:31:10;;;;;;;15.25;7.43;;;;;;;;;;10520898;28;20660;-72
2022/03/10 08:36:12;;;;;;;16.40;6.75;;;;;;;;;;10513694;28;20051;-71
2022/03/10 08:41:13;;;;;;;13.75;6.47;;;;;;;;;;10513981;28;20044;-71
2022/03/10 08:46:14;;;;;;;17.40;7.28;;;;;;;;;;10512308;28;20071;-71
2022/03/10 08:51:16;;;;;;;13.63;6.75;;;;;;;;;;10513448;28;20119;-71
2022/03/10 08:56:17;;;;;;;13.15;6.20;;;;;;;;;;10512071;28;20143;-71
2022/03/10 09:01:19;;;;;;;13.40;6.43;;;;;;;;;;10512629;28;20040;-70
2022/03/10 09:06:25;;;;;;;15.15;6.47;;;;;;;;;;10499349;28;20032;-72
2022/03/10 09:11:27;;;;;;;15.10;7.07;;;;;;;;;;10514990;28;20597;-69
2022/03/10 09:16:28;;;;;;;13.18;5.90;;;;;;;;;;10520863;28;20049;-69
2022/03/10 09:21:30;;;;;;;12.45;5.85;;;;;;;;;;10497804;28;20549;-69
2022/03/10 09:26:31;;;;;;;11.77;5.95;;;;;;;;;;10510566;28;20108;-71
2022/03/10 09:31:33;;;;;;;12.90;5.88;;;;;;;;;;10487102;28;20044;-71
2022/03/10 09:36:34;;;;;;;12.75;5.70;;;;;;;;;;10506801;28;20442;-71
2022/03/10 09:41:39;;;;;;;12.23;6.38;;;;;;;;;;10508221;28;20764;-73
2022/03/10 09:46:41;;;;;;;13.63;5.95;;;;;;;;;;10511096;28;20041;-73
2022/03/10 09:51:42;;;;;;;12.32;6.03;;;;;;;;;;10503086;28;20635;-72
2022/03/10 09:56:44;;;;;;;12.35;6.07;;;;;;;;;;10515244;28;20481;-72
2022/03/10 10:01:45;;;;;;;15.60;6.53;;;;;;;;;;10525772;28;20044;-72
2022/03/10 10:06:58;;;;;;;12.68;6.43;;;;;;;;;;10501810;28;20400;-73
2022/03/10 10:12:06;;;;;;;15.45;5.80;;;;;;;;;;10492089;28;20054;-73
2022/03/10 10:17:08;;;;;;;14.52;6.05;;;;;;;;;;10507029;28;20032;-73
2022/03/10 10:22:13;;;;;;;12.48;5.63;;;;;;;;;;10502918;28;20056;-71
2022/03/10 10:27:20;;;;;;;11.13;5.47;;;;;;;;;;10511297;28;20059;-74
2022/03/10 10:32:25;;;;;;;11.63;5.78;;;;;;;;;;10501948;28;20048;-71
2022/03/10 10:37:27;;;;;;;11.57;5.90;;;;;;;;;;10514060;28;20052;-72
2022/03/10 10:42:37;;;;;;;13.10;5.95;;;;;;;;;;10505285;28;20158;-73
2022/03/10 10:47:57;;;;;;;13.68;5.70;;;;;;;;;;10498276;28;20043;-72
2022/03/10 10:52:59;;;;;;;12.90;6.33;;;;;;;;;;10492989;28;20041;-70
2022/03/10 10:58:04;;;;;;;16.80;6.95;;;;;;;;;;10492296;28;20197;-71
2022/03/10 11:03:18;;;;;;;12.63;6.07;;;;;;;;;;10505800;28;20046;-71
2022/03/10 11:08:20;;;;;;;12.27;6.47;;;;;;;;;;10477588;28;20152;-70
2022/03/10 11:13:22;;;;;;;13.70;6.35;;;;;;;;;;10489353;28;20066;-70
2022/03/10 11:18:24;;;;;;;10.70;5.53;;;;;;;;;;10496301;28;20205;-72
2022/03/10 11:23:34;;;;;;;12.38;5.70;;;;;;;;;;10501068;28;20756;-70
2022/03/10 11:28:43;;;;;;;12.63;5.43;;;;;;;;;;10508784;28;20056;-70
2022/03/10 11:33:45;;;;;;;12.50;6.10;;;;;;;;;;10534907;27;20044;-70
2022/03/10 11:38:57;;;;;;;12.48;6.45;;;;;;;;;;10552066;28;20126;-73
2022/03/10 11:43:59;;;;;;;11.98;5.70;;;;;;;;;;10545131;27;20040;-71
2022/03/10 11:49:05;;;;;;;13.57;6.05;;;;;;;;;;10553093;27;20070;-71
2022/03/10 11:54:07;;;;;;;10.82;5.57;;;;;;;;;;10559768;27;20036;-74
2022/03/10 11:59:18;;;;;;;12.93;6.10;;;;;;;;;;10563722;27;20054;-74
2022/03/10 12:04:23;;;;;;;11.77;5.97;;;;;;;;;;10570775;28;20155;-75
2022/03/10 12:09:29;;;;;;;15.15;5.85;;;;;;;;;;10564026;27;20055;-73
2022/03/10 12:14:31;;;;;;;12.00;5.35;;;;;;;;;;10564372;27;20031;-73
2022/03/10 12:19:52;;;;;;;10.25;5.15;;;;;;;;;;10559721;27;20696;-73
2022/03/10 12:25:13;;;;;;;15.00;6.00;;;;;;;;;;10564370;27;20039;-73
2022/03/10 12:30:17;;;;;;;10.68;5.40;;;;;;;;;;10556904;28;20048;-74
2022/03/10 12:35:22;;;;;;;13.10;6.10;;;;;;;;;;10561733;27;20050;-71
2022/03/10 12:40:25;;;;;;;14.32;5.63;;;;;;;;;;10539727;28;20051;-76
2022/03/10 12:45:27;;;;;;;11.85;5.43;;;;;;;;;;10542377;27;20054;-75
2022/03/10 12:50:29;;;;;;;11.02;5.47;;;;;;;;;;10554700;28;20046;-75
2022/03/10 12:55:30;;;;;;;10.43;5.38;;;;;;;;;;10540064;28;20054;-72
2022/03/10 13:00:38;;;;;;;10.60;5.50;;;;;;;;;;10547758;27;20044;-71
2022/03/10 13:05:40;;;;;;;12.37;5.20;;;;;;;;;;10565879;27;20178;-75
2022/03/10 13:10:56;;;;;;;9.70;5.82;;;;;;;;;;10541233;27;20422;-74
2022/03/10 13:16:01;;;;;;;10.95;5.47;;;;;;;;;;10545900;28;20696;-73
2022/03/10 13:21:05;;;;;;;9.95;4.72;;;;;;;;;;10543758;27;20388;-74
2022/03/10 13:26:06;;;;;;;11.00;5.22;;;;;;;;;;10539337;28;20027;-77
2022/03/10 13:31:08;;;;;;;10.98;4.88;;;;;;;;;;10549394;27;20047;-74
2022/03/10 13:36:10;;;;;;;10.65;4.95;;;;;;;;;;10557338;27;20035;-78
2022/03/10 13:41:12;;;;;;;16.98;6.57;;;;;;;;;;10547554;28;20055;-77
2022/03/10 13:46:20;;;;;;;12.98;5.95;;;;;;;;;;10537392;27;20042;-75
2022/03/10 13:51:23;;;;;;;9.88;4.88;;;;;;;;;;10538429;27;20044;-75
2022/03/10 13:56:28;;;;;;;10.68;5.00;;;;;;;;;;10544280;28;20032;-75
2022/03/10 14:01:30;;;;;;;10.55;4.95;;;;;;;;;;10548993;28;20054;-69
2022/03/10 14:06:40;;;;;;;12.23;5.05;;;;;;;;;;10558462;28;20130;-71
2022/03/10 14:11:42;;;;;;;10.73;5.22;;;;;;;;;;10557792;27;20502;-71
2022/03/10 14:16:54;;;;;;;13.05;6.28;;;;;;;;;;10556602;28;20533;-74
2022/03/10 14:21:57;;;;;;;11.05;5.15;;;;;;;;;;10557451;27;20058;-72
2022/03/10 14:27:08;;;;;;;8.70;4.38;;;;;;;;;;10540714;28;20031;-75
2022/03/10 14:32:11;;;;;;;10.13;4.80;;;;;;;;;;10545548;27;20142;-77
2022/03/10 14:37:12;;;;;;;10.98;5.07;;;;;;;;;;10544565;28;20035;-76
2022/03/10 14:42:14;;;;;;;11.10;5.80;;;;;;;;;;10552143;28;20495;-73
2022/03/10 14:47:15;;;;;;;10.90;5.18;;;;;;;;;;10556006;27;20074;-73
2022/03/10 14:52:19;;;;;;;10.85;5.63;;;;;;;;;;10557807;28;20047;-75
2022/03/10 14:57:21;;;;;;;11.50;5.80;;;;;;;;;;10547860;27;20059;-74
2022/03/10 15:02:23;;;;;;;10.18;5.20;;;;;;;;;;10559815;28;20055;-72
2022/03/10 15:07:26;;;;;;;10.55;4.90;;;;;;;;;;10592365;27;20485;-76
2022/03/10 15:12:27;;;;;;;10.23;5.20;;;;;;;;;;10579850;27;20498;-73
2022/03/10 15:17:29;;;;;;;13.75;5.05;;;;;;;;;;10596406;27;20031;-73
2022/03/10 15:22:30;;;;;;;9.90;4.65;;;;;;;;;;10590951;27;20047;-75
2022/03/10 15:27:33;;;;;;;13.60;4.72;;;;;;;;;;10592316;27;20045;-74
2022/03/10 15:32:35;;;;;;;10.98;5.25;;;;;;;;;;10596836;27;20039;-73
2022/03/10 15:37:36;;;;;;;10.23;5.13;;;;;;;;;;10591127;27;20060;-73
2022/03/10 15:42:38;;;;;;;11.00;4.50;;;;;;;;;;10585284;27;20035;-73
2022/03/10 15:47:40;;;;;;;11.93;4.70;;;;;;;;;;10578552;27;20733;-73
2022/03/10 15:52:42;;;;;;;10.32;5.20;;;;;;;;;;10586510;27;20039;-72
2022/03/10 15:57:44;;;;;;;9.13;4.47;;;;;;;;;;10588638;27;20506;-73
2022/03/10 16:02:47;;;;;;;12.02;4.88;;;;;;;;;;10595466;27;20138;-71
2022/03/10 16:07:49;;;;;;;10.23;4.78;;;;;;;;;;10604490;27;20088;-72
2022/03/10 16:12:52;;;;;;;11.20;4.93;;;;;;;;;;10606869;27;20116;-69
2022/03/10 16:17:57;;;;;;;13.07;5.40;;;;;;;;;;10572834;27;20055;-74
2022/03/10 16:22:59;;;;;;;11.32;5.10;;;;;;;;;;10588917;27;20674;-70
2022/03/10 16:28:02;;;;;;;10.77;5.15;;;;;;;;;;10604155;27;20051;-73
2022/03/10 16:33:04;;;;;;;11.80;5.65;;;;;;;;;;10606709;27;20122;-74
2022/03/10 16:38:05;;;;;;;11.77;5.53;;;;;;;;;;10597509;27;20043;-75
2022/03/10 16:43:07;;;;;;;10.77;4.80;;;;;;;;;;10605047;27;20391;-75
2022/03/10 16:48:09;;;;;;;12.73;5.55;;;;;;;;;;10605672;27;20039;-75
2022/03/10 16:53:10;;;;;;;10.77;4.50;;;;;;;;;;10603322;27;20142;-75
2022/03/10 16:58:11;;;;;;;13.85;4.78;;;;;;;;;;10604659;27;20043;-75
2022/03/10 17:03:13;;;;;;;11.45;4.82;;;;;;;;;;10613750;27;20076;-75
2022/03/10 17:08:15;;;;;;;11.98;4.75;;;;;;;;;;10598429;27;20040;-73
2022/03/10 17:13:17;;;;;;;8.45;3.85;;;;;;;;;;10601734;27;20043;-73
2022/03/10 17:18:18;;;;;;;11.32;4.57;;;;;;;;;;10603592;27;20051;-75
2022/03/10 17:23:20;;;;;;;11.77;4.57;;;;;;;;;;10599514;27;20040;-76
2022/03/10 17:28:23;;;;;;;9.70;4.25;;;;;;;;;;10602740;27;20039;-74
2022/03/10 17:33:24;;;;;;;10.23;4.55;;;;;;;;;;10605123;27;20043;-75
2022/03/10 17:38:26;;;;;;;11.75;4.55;;;;;;;;;;10608085;27;20039;-75
2022/03/10 17:43:27;;;;;;;9.35;4.00;;;;;;;;;;10605377;27;20055;-75
2022/03/10 17:48:28;;;;;;;10.68;4.82;;;;;;;;;;10604516;27;20078;-75
2022/03/10 17:53:31;;;;;;;11.57;4.75;;;;;;;;;;10603017;27;20475;-75
2022/03/10 17:58:32;;;;;;;12.05;5.10;;;;;;;;;;10600845;27;20051;-75
2022/03/10 18:03:34;;;;;;;14.98;5.78;;;;;;;;;;10601154;27;20043;-75
2022/03/10 18:08:35;;;;;;;12.77;5.28;;;;;;;;;;10588370;27;20047;-75
2022/03/10 18:13:37;;;;;;;10.02;4.22;;;;;;;;;;10594941;27;20076;-75
2022/03/10 18:18:39;;;;;;;11.07;4.18;;;;;;;;;;10578737;27;20552;-75
2022/03/10 18:23:40;;;;;;;12.75;5.05;;;;;;;;;;10594931;27;20407;-75
2022/03/10 18:28:47;;;;;;;12.07;4.78;;;;;;;;;;10594044;27;20047;-75
2022/03/10 18:33:49;;;;;;;13.18;4.65;;;;;;;;;;10590140;27;20043;-76
2022/03/10 18:38:50;;;;;;;10.32;4.20;;;;;;;;;;10594403;27;20058;-75
2022/03/10 18:43:51;;;;;;;12.50;5.22;;;;;;;;;;10594219;27;20057;-75
2022/03/10 18:48:53;;;;;;;12.85;4.93;;;;;;;;;;10592695;27;20053;-74
2022/03/10 18:53:54;;;;;;;12.38;4.65;;;;;;;;;;10597036;27;20075;-75
2022/03/10 18:58:55;;;;;;;10.55;4.00;;;;;;;;;;10602048;27;20039;-75
2022/03/10 19:03:59;;;;;;;9.27;3.92;;;;;;;;;;10606814;27;20043;-76
2022/03/10 19:09:01;;;;;;;10.50;4.35;;;;;;;;;;10583651;27;20506;-76
2022/03/10 19:14:03;;;;;;;10.30;4.00;;;;;;;;;;10595900;28;20059;-77
2022/03/10 19:19:05;;;;;;;9.45;3.53;;;;;;;;;;10569037;27;20043;-76
2022/03/10 19:24:06;;;;;;;9.90;3.70;;;;;;;;;;10576590;28;20142;-76
2022/03/10 19:29:08;;;;;;;8.52;3.70;;;;;;;;;;10603490;27;20054;-77
2022/03/10 19:34:09;;;;;;;12.88;3.63;;;;;;;;;;10600085;27;20059;-77
2022/03/10 19:39:11;;;;;;;12.35;3.63;;;;;;;;;;10593863;27;20048;-76
2022/03/10 19:44:12;;;;;;;7.97;3.13;;;;;;;;;;10548446;27;20047;-76
2022/03/10 19:49:14;;;;;;;12.85;3.78;;;;;;;;;;10581815;27;20043;-77
2022/03/10 19:54:15;;;;;;;8.00;3.47;;;;;;;;;;10584461;27;20084;-77
2022/03/10 19:59:17;;;;;;;10.27;3.78;;;;;;;;;;10594704;27;20051;-76
2022/03/10 20:04:18;;;;;;;10.07;3.40;;;;;;;;;;10609888;27;20100;-75
2022/03/10 20:09:20;;;;;;;10.90;3.55;;;;;;;;;;10585640;27;20051;-76
2022/03/10 20:14:21;;;;;;;11.68;4.15;;;;;;;;;;10608455;27;20043;-76
2022/03/10 20:19:23;;;;;;;8.82;3.70;;;;;;;;;;10605774;27;20061;-76
2022/03/10 20:24:24;;;;;;;10.68;4.05;;;;;;;;;;10608133;27;20053;-75
2022/03/10 20:29:28;;;;;;;11.93;4.38;;;;;;;;;;10588896;27;20035;-75
2022/03/10 20:34:30;;;;;;;12.30;4.55;;;;;;;;;;10605987;27;20119;-75
2022/03/10 20:39:32;;;;;;;10.32;4.60;;;;;;;;;;10572757;27;20047;-77
2022/03/10 20:44:37;;;;;;;9.82;4.30;;;;;;;;;;10604583;27;20051;-75
2022/03/10 20:49:38;;;;;;;12.68;5.03;;;;;;;;;;10598251;27;20046;-75
2022/03/10 20:54:40;;;;;;;11.30;4.60;;;;;;;;;;10599379;27;20101;-76
2022/03/10 20:59:42;;;;;;;11.90;4.82;;;;;;;;;;10609467;27;20043;-75
2022/03/10 21:04:43;;;;;;;15.02;5.78;;;;;;;;;;10587405;27;20043;-74
2022/03/10 21:09:44;;;;;;;13.05;5.57;;;;;;;;;;10604510;27;20565;-76
2022/03/10 21:14:46;;;;;;;15.13;5.60;;;;;;;;;;10584762;27;20054;-75
2022/03/10 21:19:48;;;;;;;12.40;5.60;;;;;;;;;;10607000;27;20049;-75
2022/03/10 21:24:49;;;;;;;16.75;6.13;;;;;;;;;;10606028;27;20051;-75
2022/03/10 21:29:50;;;;;;;14.60;6.00;;;;;;;;;;10606940;27;20682;-76
2022/03/10 21:34:52;;;;;;;14.77;5.82;;;;;;;;;;10601947;27;20470;-75
2022/03/10 21:39:53;;;;;;;16.10;6.78;;;;;;;;;;10601804;27;20047;-74
2022/03/10 21:44:57;;;;;;;22.02;8.02;;;;;;;;;;10607945;27;20043;-75
2022/03/10 21:50:00;;;;;;;17.38;7.05;;;;;;;;;;10604877;27;20043;-75
2022/03/10 21:55:22;;;;;;;18.50;7.60;;;;;;;;;;10601877;27;20051;-75
2022/03/10 22:00:24;;;;;;;22.83;7.60;;;;;;;;;;10597654;27;20490;-73
2022/03/10 22:05:28;;;;;;;18.90;8.55;;;;;;;;;;10610767;27;20530;-75
2022/03/10 22:10:30;;;;;;;36.50;13.50;;;;;;;;;;10587373;27;20050;-75
2022/03/10 22:15:31;;;;;;;17.27;7.43;;;;;;;;;;10566995;27;20039;-75
2022/03/10 22:20:36;;;;;;;17.77;8.13;;;;;;;;;;10556306;27;20077;-74
2022/03/10 22:25:37;;;;;;;18.17;8.02;;;;;;;;;;10607803;27;20401;-75
2022/03/10 22:30:39;;;;;;;17.73;7.60;;;;;;;;;;10577402;27;20063;-75
2022/03/10 22:35:40;;;;;;;22.98;9.73;;;;;;;;;;10566901;27;20050;-75
2022/03/10 22:40:42;;;;;;;22.98;8.60;;;;;;;;;;10581664;27;20050;-75
2022/03/10 22:45:45;;;;;;;20.50;8.98;;;;;;;;;;10565517;27;20106;-74
2022/03/10 22:56:06;;;;;;;20.55;9.48;;;;;;;;;;10565700;27;20048;-74
2022/03/10 23:01:08;;;;;;;24.65;8.75;;;;;;;;;;10604159;27;20103;-73
2022/03/10 23:11:29;;;;;;;22.00;9.30;;;;;;;;;;10605208;27;20067;-74
2022/03/10 23:16:31;;;;;;;21.30;9.40;;;;;;;;;;10581132;27;20387;-74
2022/03/10 23:21:32;;;;;;;23.05;8.75;;;;;;;;;;10605268;27;20047;-74
2022/03/10 23:26:34;;;;;;;23.05;9.80;;;;;;;;;;10588171;27;20053;-74
2022/03/10 23:31:35;;;;;;;24.92;9.60;;;;;;;;;;10593045;27;20066;-75
2022/03/10 23:36:37;;;;;;;21.33;8.55;;;;;;;;;;10565891;28;20040;-74
2022/03/10 23:41:38;;;;;;;26.25;10.75;;;;;;;;;;10570814;27;20130;-75
2022/03/10 23:46:39;;;;;;;19.65;8.50;;;;;;;;;;10605850;27;20035;-74
2022/03/10 23:51:42;;;;;;;19.67;8.50;;;;;;;;;;10604802;27;20055;-74
2022/03/10 23:56:44;;;;;;;21.90;8.90;;;;;;;;;;10605611;27;20053;-74
